Stephen L. — WDE7070 — position and weather

sailwx.info

Track history (hours):
 
Tides and Currents Weather Stations Pressure Air Temp Water Temp Dewpoint Dewpoint Depression Visibility Wind Speed Wind Dir Waves Ship Positions

Stephen L.

Owner: TRIPLE S MARINE, LLC, MORGAN CITY, LA. More information available from US FCC via Universal Licensing System and Coast Guard Vessel Documentation Center.

Last reported at 2015-Feb-27 14:33 UTC. Time now 2015-Mar-02 12:44 UTC.
Position N 29°40' W 091°06'.

Length 20 m.

Type: Ship. MMSI: 367388580.

Date/timePositionNaut miles runAvg speedWind from/ knotsBaromVisibWave heightAir tempDewpointWater temp
2015-Feb-27 14:33N 29°40' W 091°06'0 0.0
2015-Feb-27 13:33N 29°40' W 091°06'0 0.0
2015-Feb-27 12:33N 29°40' W 091°06'0 0.0
2015-Feb-27 11:33N 29°40' W 091°06'0 0.0
2015-Feb-27 10:33N 29°40' W 091°06'0 0.0
2015-Feb-27 09:33N 29°40' W 091°06'0 0.0
2015-Feb-27 08:33N 29°40' W 091°06'0 0.0
2015-Feb-27 07:33N 29°40' W 091°06'0 0.0
2015-Feb-27 06:33N 29°40' W 091°06'0 0.0
2015-Feb-27 05:33N 29°40' W 091°06'0 0.0
2015-Feb-27 04:33N 29°40' W 091°06'0 0.0
2015-Feb-27 03:33N 29°40' W 091°06'0 0.0
2015-Feb-27 02:33N 29°40' W 091°06'0 0.0
2015-Feb-27 01:33N 29°40' W 091°06'0 0.0
2015-Feb-27 00:33N 29°40' W 091°06'1 0.8
2015-Feb-26 23:32N 29°40' W 091°06'3 2.8
2015-Feb-26 22:33N 29°41' W 091°09'4 3.9
2015-Feb-26 21:33N 29°41' W 091°13'7 6.7
2015-Feb-26 20:33N 29°38' W 091°21'3 0.2
2015-Feb-26 07:28N 29°39' W 091°24'5 5.3
2015-Feb-26 06:33N 29°38' W 091°19'4 3.7
2015-Feb-26 05:33N 29°38' W 091°14'4 3.8
2015-Feb-26 04:33N 29°34' W 091°14'5 4.4
2015-Feb-26 03:31N 29°30' W 091°16'4 3.3
2015-Feb-26 02:25N 29°27' W 091°18'1 0.0
2015-Feb-25 11:25N 29°27' W 091°17'6 6.4
2015-Feb-25 10:33N 29°33' W 091°15'6 6.2
2015-Feb-25 09:33N 29°39' W 091°14'5 5.1
2015-Feb-25 08:33N 29°38' W 091°20'3 0.2
2015-Feb-24 19:33N 29°39' W 091°24'8 7.8
2015-Feb-24 18:34N 29°39' W 091°15'6 6.0
2015-Feb-24 17:33N 29°40' W 091°08'2 2.3
2015-Feb-24 16:33N 29°39' W 091°06'2 0.5
2015-Feb-24 13:33N 29°40' W 091°06'2 1.6
2015-Feb-24 12:33N 29°39' W 091°06'5 5.2
2015-Feb-24 11:33N 29°41' W 091°12'6 6.3
2015-Feb-24 10:33N 29°39' W 091°18'2 0.1
2015-Feb-23 00:33N 29°38' W 091°20'7 7.1
2015-Feb-22 23:33N 29°41' W 091°13'5 5.1
2015-Feb-22 22:33N 29°39' W 091°07'2 1.9
2015-Feb-22 21:33N 29°40' W 091°06'0 0.0
2015-Feb-22 20:33N 29°40' W 091°06'0 0.0
2015-Feb-22 19:33N 29°40' W 091°06'0 0.0
2015-Feb-22 18:33N 29°40' W 091°06'0 0.0
2015-Feb-22 17:29N 29°40' W 091°06'0 0.0
2015-Feb-22 16:31N 29°40' W 091°06'0 0.0
2015-Feb-22 15:24N 29°40' W 091°06'0 0.0
2015-Feb-22 14:33N 29°40' W 091°06'0 0.0
2015-Feb-22 13:33N 29°40' W 091°06'0 0.0
2015-Feb-22 12:33N 29°40' W 091°06'0 0.0
2015-Feb-22 11:33N 29°40' W 091°06'0 0.0
2015-Feb-22 10:33N 29°40' W 091°06'0 0.0
2015-Feb-22 09:33N 29°40' W 091°06'0 0.0
2015-Feb-22 08:33N 29°40' W 091°06'0 0.0
2015-Feb-22 07:33N 29°40' W 091°06'0 0.0
2015-Feb-22 06:33N 29°40' W 091°06'0 0.0
2015-Feb-22 05:31N 29°40' W 091°06'0 0.0
2015-Feb-22 04:27N 29°40' W 091°06'0 0.0
2015-Feb-22 03:27N 29°40' W 091°06'0 0.0
2015-Feb-22 02:30N 29°40' W 091°06'0 0.0
2015-Feb-22 01:31N 29°40' W 091°06'0 0.0
2015-Feb-22 00:33N 29°40' W 091°06'0 0.0
2015-Feb-21 23:31N 29°40' W 091°06'0 0.0
2015-Feb-21 22:30N 29°40' W 091°06'0 0.0
2015-Feb-21 21:33N 29°40' W 091°06'0 0.0
2015-Feb-21 20:33N 29°40' W 091°06'0 0.0
2015-Feb-21 19:33N 29°40' W 091°06'0 0.0
2015-Feb-21 18:33N 29°40' W 091°06'0 0.0
2015-Feb-21 17:33N 29°40' W 091°06'0 0.0
2015-Feb-21 16:32N 29°40' W 091°06'0 0.0
2015-Feb-21 15:32N 29°40' W 091°06'0 0.0
2015-Feb-21 14:33N 29°40' W 091°06'0 0.0
2015-Feb-21 13:33N 29°40' W 091°06'0 0.0
2015-Feb-21 12:33N 29°40' W 091°06'0 0.0
2015-Feb-21 11:33N 29°40' W 091°06'0 0.0
2015-Feb-21 10:33N 29°40' W 091°06'0 0.0
2015-Feb-21 09:33N 29°40' W 091°06'0 0.0
2015-Feb-21 08:33N 29°40' W 091°06'0 0.0
2015-Feb-21 07:33N 29°40' W 091°06'0 0.0
2015-Feb-21 06:33N 29°40' W 091°06'0 0.0
2015-Feb-21 05:33N 29°40' W 091°06'0 0.0
2015-Feb-21 04:33N 29°40' W 091°06'0 0.0
2015-Feb-21 03:33N 29°40' W 091°06'0 0.0
2015-Feb-21 02:33N 29°40' W 091°06'0 0.0
2015-Feb-21 01:33N 29°40' W 091°06'3 3.2
2015-Feb-21 00:33N 29°38' W 091°04'3 1.0
2015-Feb-20 22:05N 29°39' W 091°02'2 2.9
2015-Feb-20 21:29N 29°38' W 091°03'4 4.8
2015-Feb-20 20:33N 29°37' W 091°08'9 4.3
2015-Feb-20 18:29N 29°31' W 091°16'1 0.1
2015-Feb-20 06:33N 29°32' W 091°16'6 5.9
2015-Feb-20 05:33N 29°36' W 091°11'5 5.1
2015-Feb-20 04:32N 29°38' W 091°06'2 2.2
2015-Feb-20 03:33N 29°40' W 091°06'1 0.9
2015-Feb-20 02:32N 29°40' W 091°06'0 0.0
2015-Feb-20 01:33N 29°40' W 091°06'0 0.0
2015-Feb-19 23:06N 29°40' W 091°06'2 3.0
2015-Feb-19 22:33N 29°40' W 091°08'4 4.3
2015-Feb-19 21:33N 29°41' W 091°13'10 7.0
2015-Feb-19 20:11N 29°39' W 091°23'  
Track history (hours):
 
Tides and Currents Weather Stations Pressure Air Temp Water Temp Dewpoint Dewpoint Depression Visibility Wind Speed Wind Dir Waves Ship Positions

Stephen L.

Owner: TRIPLE S MARINE, LLC, MORGAN CITY, LA. More information available from US FCC via Universal Licensing System and Coast Guard Vessel Documentation Center.

Last reported at 2015-Feb-27 14:33 UTC. Time now 2015-Mar-02 12:44 UTC.
Position N 29°40' W 091°06'.

Length 20 m.

Type: Ship. MMSI: 367388580.

Date/timePositionNaut miles runAvg speedWind from/ knotsBaromVisibWave heightAir tempDewpointWater temp
2015-Feb-27 14:33N 29°40' W 091°06'0 0.0
2015-Feb-27 13:33N 29°40' W 091°06'0 0.0
2015-Feb-27 12:33N 29°40' W 091°06'0 0.0
2015-Feb-27 11:33N 29°40' W 091°06'0 0.0
2015-Feb-27 10:33N 29°40' W 091°06'0 0.0
2015-Feb-27 09:33N 29°40' W 091°06'0 0.0
2015-Feb-27 08:33N 29°40' W 091°06'0 0.0
2015-Feb-27 07:33N 29°40' W 091°06'0 0.0
2015-Feb-27 06:33N 29°40' W 091°06'0 0.0
2015-Feb-27 05:33N 29°40' W 091°06'0 0.0
2015-Feb-27 04:33N 29°40' W 091°06'0 0.0
2015-Feb-27 03:33N 29°40' W 091°06'0 0.0
2015-Feb-27 02:33N 29°40' W 091°06'0 0.0
2015-Feb-27 01:33N 29°40' W 091°06'0 0.0
2015-Feb-27 00:33N 29°40' W 091°06'1 0.8
2015-Feb-26 23:32N 29°40' W 091°06'3 2.8
2015-Feb-26 22:33N 29°41' W 091°09'4 3.9
2015-Feb-26 21:33N 29°41' W 091°13'7 6.7
2015-Feb-26 20:33N 29°38' W 091°21'3 0.2
2015-Feb-26 07:28N 29°39' W 091°24'5 5.3
2015-Feb-26 06:33N 29°38' W 091°19'4 3.7
2015-Feb-26 05:33N 29°38' W 091°14'4 3.8
2015-Feb-26 04:33N 29°34' W 091°14'5 4.4
2015-Feb-26 03:31N 29°30' W 091°16'4 3.3
2015-Feb-26 02:25N 29°27' W 091°18'1 0.0
2015-Feb-25 11:25N 29°27' W 091°17'6 6.4
2015-Feb-25 10:33N 29°33' W 091°15'6 6.2
2015-Feb-25 09:33N 29°39' W 091°14'5 5.1
2015-Feb-25 08:33N 29°38' W 091°20'3 0.2
2015-Feb-24 19:33N 29°39' W 091°24'8 7.8
2015-Feb-24 18:34N 29°39' W 091°15'6 6.0
2015-Feb-24 17:33N 29°40' W 091°08'2 2.3
2015-Feb-24 16:33N 29°39' W 091°06'2 0.5
2015-Feb-24 13:33N 29°40' W 091°06'2 1.6
2015-Feb-24 12:33N 29°39' W 091°06'5 5.2
2015-Feb-24 11:33N 29°41' W 091°12'6 6.3
2015-Feb-24 10:33N 29°39' W 091°18'2 0.1
2015-Feb-23 00:33N 29°38' W 091°20'7 7.1
2015-Feb-22 23:33N 29°41' W 091°13'5 5.1
2015-Feb-22 22:33N 29°39' W 091°07'2 1.9
2015-Feb-22 21:33N 29°40' W 091°06'0 0.0
2015-Feb-22 20:33N 29°40' W 091°06'0 0.0
2015-Feb-22 19:33N 29°40' W 091°06'0 0.0
2015-Feb-22 18:33N 29°40' W 091°06'0 0.0
2015-Feb-22 17:29N 29°40' W 091°06'0 0.0
2015-Feb-22 16:31N 29°40' W 091°06'0 0.0
2015-Feb-22 15:24N 29°40' W 091°06'0 0.0
2015-Feb-22 14:33N 29°40' W 091°06'0 0.0
2015-Feb-22 13:33N 29°40' W 091°06'0 0.0
2015-Feb-22 12:33N 29°40' W 091°06'0 0.0
2015-Feb-22 11:33N 29°40' W 091°06'0 0.0
2015-Feb-22 10:33N 29°40' W 091°06'0 0.0
2015-Feb-22 09:33N 29°40' W 091°06'0 0.0
2015-Feb-22 08:33N 29°40' W 091°06'0 0.0
2015-Feb-22 07:33N 29°40' W 091°06'0 0.0
2015-Feb-22 06:33N 29°40' W 091°06'0 0.0
2015-Feb-22 05:31N 29°40' W 091°06'0 0.0
2015-Feb-22 04:27N 29°40' W 091°06'0 0.0
2015-Feb-22 03:27N 29°40' W 091°06'0 0.0
2015-Feb-22 02:30N 29°40' W 091°06'0 0.0
2015-Feb-22 01:31N 29°40' W 091°06'0 0.0
2015-Feb-22 00:33N 29°40' W 091°06'0 0.0
2015-Feb-21 23:31N 29°40' W 091°06'0 0.0
2015-Feb-21 22:30N 29°40' W 091°06'0 0.0
2015-Feb-21 21:33N 29°40' W 091°06'0 0.0
2015-Feb-21 20:33N 29°40' W 091°06'0 0.0
2015-Feb-21 19:33N 29°40' W 091°06'0 0.0
2015-Feb-21 18:33N 29°40' W 091°06'0 0.0
2015-Feb-21 17:33N 29°40' W 091°06'0 0.0
2015-Feb-21 16:32N 29°40' W 091°06'0 0.0
2015-Feb-21 15:32N 29°40' W 091°06'0 0.0
2015-Feb-21 14:33N 29°40' W 091°06'0 0.0
2015-Feb-21 13:33N 29°40' W 091°06'0 0.0
2015-Feb-21 12:33N 29°40' W 091°06'0 0.0
2015-Feb-21 11:33N 29°40' W 091°06'0 0.0
2015-Feb-21 10:33N 29°40' W 091°06'0 0.0
2015-Feb-21 09:33N 29°40' W 091°06'0 0.0
2015-Feb-21 08:33N 29°40' W 091°06'0 0.0
2015-Feb-21 07:33N 29°40' W 091°06'0 0.0
2015-Feb-21 06:33N 29°40' W 091°06'0 0.0
2015-Feb-21 05:33N 29°40' W 091°06'0 0.0
2015-Feb-21 04:33N 29°40' W 091°06'0 0.0
2015-Feb-21 03:33N 29°40' W 091°06'0 0.0
2015-Feb-21 02:33N 29°40' W 091°06'0 0.0
2015-Feb-21 01:33N 29°40' W 091°06'3 3.2
2015-Feb-21 00:33N 29°38' W 091°04'3 1.0
2015-Feb-20 22:05N 29°39' W 091°02'2 2.9
2015-Feb-20 21:29N 29°38' W 091°03'4 4.8
2015-Feb-20 20:33N 29°37' W 091°08'9 4.3
2015-Feb-20 18:29N 29°31' W 091°16'1 0.1
2015-Feb-20 06:33N 29°32' W 091°16'6 5.9
2015-Feb-20 05:33N 29°36' W 091°11'5 5.1
2015-Feb-20 04:32N 29°38' W 091°06'2 2.2
2015-Feb-20 03:33N 29°40' W 091°06'1 0.9
2015-Feb-20 02:32N 29°40' W 091°06'0 0.0
2015-Feb-20 01:33N 29°40' W 091°06'0 0.0
2015-Feb-19 23:06N 29°40' W 091°06'2 3.0
2015-Feb-19 22:33N 29°40' W 091°08'4 4.3
2015-Feb-19 21:33N 29°41' W 091°13'10 7.0
2015-Feb-19 20:11N 29°39' W 091°23'  

Dump ship's entire track history